Forest fire From: 18-06-2018 11:00 Until: 19-06-2018 10:14 warning for: Forest fire Level: Yellow info button
suomi:
Metsäpalovaroitus on voimassa.

svenska:
Varning för skogsbrand gäller.

english:
A forest fire warning is in force. 


Thunder radar more information blitzortung!


Löydät sääaseman tiedot myös:

European Weather Network

Finland Weather Exchange

Weather Underground

AWEKAS



Weather Underground säähistoriasivu

Päivittäin yhteenveto Lokakuu 30, 2017 Yksiköt:  Englantilaiset    Metriset   Molemmat
« Edellinen Päivä
Seuraava Päivä »
Päivittäin Viikoittain Kuukausittain Vuosittain Mukautettu
  Korkea: Matala: Keskiarvo:
Lämpötila: TemperatureC °F -0.5 °F 0.7 °F
Kastepiste: DewpointC °F -1.5 °F -0.3 °F
Kosteus: Humidity % 82 % 92 %
Tuulen nopeus: WindSpeedKMH mph 0.0 mph 3.2 mph
Tuulenpuuska: WindSpeedGustKMH mph - -
Tuuli:- - West
Ilmanpaine: PressurehPa in 992.1 in -
Sade: 0.0 in    
Historical Graphs
 
 
Taulukkotiedot Lokakuu 30, 2017
Aika Lämpötila Kastepiste Ilmanpaine Tuuli Tuulen nopeus Tuulenpuuska Kosteus Sademäärä (tunneittain)
TemperatureC °F DewpointC °F PressurehPa in Calm     Humidity % HourlyPrecipMM in
00:00 0.8 °F 0.6 °F 992.1 in North 4.8 mph 16.1 mph 98 % 0.0 in
00:15 0.8 °F 0.6 °F 992.1 in North 4.8 mph 19.3 mph 98 % 0.0 in
00:30 0.8 °F 0.6 °F 992.4 in NNW 4.8 mph 12.9 mph 98 % 0.0 in
00:45 0.8 °F 0.5 °F 992.4 in North 3.2 mph 8.0 mph 98 % 0.0 in
01:00 0.8 °F 0.5 °F 992.8 in NNW 3.2 mph 9.7 mph 98 % 0.0 in
01:15 0.7 °F 0.4 °F 992.8 in North 3.2 mph 9.7 mph 98 % 0.0 in
01:30 0.8 °F 0.5 °F 993.1 in North 4.8 mph 9.7 mph 98 % 0.0 in
01:45 0.8 °F 0.5 °F 993.1 in North 3.2 mph 9.7 mph 98 % 0.0 in
02:15 0.8 °F 0.6 °F 993.1 in North 6.4 mph 11.3 mph 98 % 0.0 in
02:30 0.8 °F 0.6 °F 993.5 in North 4.8 mph 14.5 mph 98 % 0.0 in
02:45 0.8 °F 0.6 °F 993.8 in North 6.4 mph 16.1 mph 98 % 0.0 in
03:00 0.8 °F 0.6 °F 993.8 in North 4.8 mph 14.5 mph 98 % 0.0 in
03:15 0.8 °F 0.5 °F 994.1 in North 4.8 mph 8.0 mph 98 % 0.0 in
03:30 0.7 °F 0.4 °F 994.1 in North 4.8 mph 8.0 mph 98 % 0.0 in
03:45 0.7 °F 0.4 °F 994.5 in North 4.8 mph 11.3 mph 98 % 0.0 in
04:00 0.7 °F 0.4 °F 994.5 in North 4.8 mph 9.7 mph 98 % 0.0 in
04:15 0.7 °F 0.4 °F 994.8 in North 4.8 mph 11.3 mph 98 % 0.0 in
04:30 0.7 °F 0.4 °F 995.1 in North 4.8 mph 9.7 mph 98 % 0.0 in
04:45 0.6 °F 0.3 °F 995.1 in North 3.2 mph 6.4 mph 98 % 0.0 in
05:00 0.6 °F 0.3 °F 995.5 in North 4.8 mph 12.9 mph 98 % 0.0 in
05:30 0.6 °F 0.3 °F 995.8 in North 4.8 mph 16.1 mph 98 % 0.0 in
05:45 0.6 °F 0.3 °F 996.2 in North 4.8 mph 11.3 mph 98 % 0.0 in
06:00 0.6 °F 0.3 °F 996.2 in North 4.8 mph 12.9 mph 98 % 0.0 in
06:15 0.5 °F 0.2 °F 996.5 in North 6.4 mph 14.5 mph 98 % 0.0 in
06:30 0.5 °F 0.2 °F 996.5 in North 4.8 mph 20.9 mph 98 % 0.0 in
06:45 0.4 °F 0.2 °F 996.8 in North 6.4 mph 11.3 mph 98 % 0.0 in
07:00 0.4 °F 0.2 °F 997.2 in North 4.8 mph 11.3 mph 98 % 0.0 in
07:15 0.3 °F 0.1 °F 997.2 in North 3.2 mph 8.0 mph 98 % 0.0 in
07:30 0.3 °F 0.1 °F 997.5 in North 4.8 mph 9.7 mph 98 % 0.0 in
07:45 0.3 °F -0.1 °F 997.9 in North 3.2 mph 8.0 mph 97 % 0.0 in
08:00 0.3 °F -0.1 °F 998.2 in North 3.2 mph 9.7 mph 97 % 0.0 in
08:15 0.3 °F -0.1 °F 998.2 in North 3.2 mph 9.7 mph 97 % 0.0 in
08:30 0.3 °F -0.3 °F 998.5 in North 4.8 mph 8.0 mph 96 % 0.0 in
08:45 0.3 °F -0.2 °F 998.5 in North 4.8 mph 12.9 mph 96 % 0.0 in
09:00 0.4 °F -0.3 °F 998.9 in North 4.8 mph 14.5 mph 95 % 0.0 in
09:15 0.5 °F -0.4 °F 998.9 in North 4.8 mph 9.7 mph 94 % 0.0 in
09:30 0.6 °F -0.4 °F 998.9 in North 6.4 mph 16.1 mph 93 % 0.0 in
09:45 0.7 °F -0.4 °F 999.2 in North 4.8 mph 12.9 mph 92 % 0.0 in
10:00 0.8 °F -0.4 °F 999.5 in North 4.8 mph 9.7 mph 92 % 0.0 in
10:15 0.9 °F -0.3 °F 999.9 in North 4.8 mph 9.7 mph 92 % 0.0 in
10:30 0.9 °F -0.1 °F 1000.2 in North 3.2 mph 14.5 mph 93 % 0.0 in
10:45 1.0 °F 0.0 °F 1000.2 in North 3.2 mph 9.7 mph 93 % 0.0 in
11:00 1.1 °F 0.1 °F 1000.6 in North 3.2 mph 8.0 mph 93 % 0.0 in
11:15 1.1 °F 0.1 °F 1000.6 in NNW 3.2 mph 9.7 mph 93 % 0.0 in
11:30 1.1 °F -0.1 °F 1000.6 in NNW 4.8 mph 11.3 mph 92 % 0.0 in
11:45 1.1 °F 0.0 °F 1000.9 in North 3.2 mph 9.7 mph 92 % 0.0 in
12:00 1.4 °F 0.1 °F 1000.9 in North 4.8 mph 9.7 mph 91 % 0.0 in
12:15 1.6 °F 0.1 °F 1001.2 in North 1.6 mph 6.4 mph 90 % 0.0 in
12:30 1.7 °F 0.1 °F 1001.2 in North 3.2 mph 16.1 mph 89 % 0.0 in
12:45 1.8 °F -0.1 °F 1001.2 in North 4.8 mph 20.9 mph 87 % 0.0 in
13:15 2.1 °F 0.0 °F 1001.9 in North 1.6 mph 9.7 mph 86 % 0.0 in
13:30 2.1 °F -0.3 °F 1001.9 in NNW 3.2 mph 11.3 mph 84 % 0.0 in
13:45 2.1 °F -0.1 °F 1001.9 in North 1.6 mph 11.3 mph 85 % 0.0 in
14:00 2.0 °F -0.8 °F 1002.3 in North 3.2 mph 9.7 mph 82 % 0.0 in
14:15 1.8 °F -0.4 °F 1002.3 in North 1.6 mph 12.9 mph 85 % 0.0 in
14:30 1.7 °F -0.5 °F 1002.3 in NNW 1.6 mph 8.0 mph 85 % 0.0 in
14:45 2.0 °F -0.4 °F 1002.6 in NNW 3.2 mph 8.0 mph 84 % 0.0 in
15:00 1.8 °F -0.7 °F 1002.6 in North 3.2 mph 11.3 mph 83 % 0.0 in
15:15 1.7 °F -0.7 °F 1002.9 in NNW 1.6 mph 6.4 mph 84 % 0.0 in
15:30 1.6 °F -0.6 °F 1002.9 in NNW 3.2 mph 9.7 mph 85 % 0.0 in
15:45 1.3 °F -0.8 °F 1003.3 in NW 1.6 mph 9.7 mph 86 % 0.0 in
16:00 1.0 °F -0.9 °F 1003.3 in North 1.6 mph 8.0 mph 87 % 0.0 in
16:15 0.9 °F -1.0 °F 1003.6 in NNW 1.6 mph 11.3 mph 87 % 0.0 in
16:30 0.9 °F -1.0 °F 1003.6 in Calm   4.8 mph 87 % 0.0 in
16:45 0.8 °F -0.9 °F 1003.9 in Calm   6.4 mph 88 % 0.0 in
17:00 0.8 °F -0.9 °F 1003.9 in NNW 1.6 mph 6.4 mph 88 % 0.0 in
17:15 0.8 °F -0.8 °F 1004.3 in North 3.2 mph 9.7 mph 89 % 0.0 in
17:30 0.6 °F -1.0 °F 1004.3 in NW 1.6 mph 6.4 mph 89 % 0.0 in
17:45 0.2 °F -1.2 °F 1004.3 in NW 1.6 mph 6.4 mph 90 % 0.0 in
18:00 0.0 °F -1.3 °F 1004.6 in NW 3.2 mph 8.0 mph 91 % 0.0 in
18:15 -0.1 °F -1.4 °F 1004.6 in NW 3.2 mph 8.0 mph 91 % 0.0 in
18:30 -0.2 °F -1.3 °F 1004.6 in NW 4.8 mph 9.7 mph 92 % 0.0 in
19:00 0.0 °F -1.0 °F 1004.6 in NW 1.6 mph 6.4 mph 93 % 0.0 in
19:15 0.0 °F -1.0 °F 1005.0 in Calm   3.2 mph 93 % 0.0 in
19:30 0.1 °F -0.9 °F 1005.0 in Calm     93 % 0.0 in
19:45 0.1 °F -0.9 °F 1005.0 in Calm   1.6 mph 93 % 0.0 in
20:00 0.2 °F -0.8 °F 1005.0 in Calm   4.8 mph 93 % 0.0 in
20:15 0.2 °F -0.8 °F 1005.0 in Calm     93 % 0.0 in
20:30 0.2 °F -0.8 °F 1005.3 in Calm   4.8 mph 93 % 0.0 in
20:45 0.2 °F -1.0 °F 1005.3 in NW 1.6 mph 6.4 mph 92 % 0.0 in
21:15 0.1 °F -0.9 °F 1005.3 in NW 1.6 mph 6.4 mph 93 % 0.0 in
21:30 0.1 °F -0.9 °F 1005.3 in Calm   3.2 mph 93 % 0.0 in
21:45 -0.1 °F -1.1 °F 1005.6 in Calm   3.2 mph 93 % 0.0 in
22:00 -0.2 °F -1.2 °F 1005.6 in Calm   3.2 mph 93 % 0.0 in
22:15 -0.3 °F -1.3 °F 1006.0 in NW 1.6 mph 4.8 mph 93 % 0.0 in
22:30 -0.4 °F -1.4 °F 1006.0 in NW 1.6 mph 4.8 mph 93 % 0.0 in
22:45 -0.5 °F -1.5 °F 1006.0 in NW 1.6 mph 6.4 mph 93 % 0.0 in
23:00 -0.2 °F -1.4 °F 1006.0 in NW 4.8 mph 8.0 mph 92 % 0.0 in
23:15 -0.1 °F -1.2 °F 1006.0 in WNW 4.8 mph 8.0 mph 92 % 0.0 in
23:30 0.0 °F -1.3 °F 1006.0 in NW 3.2 mph 8.0 mph 91 % 0.0 in
23:45 0.1 °F -1.2 °F 1006.0 in NW 3.2 mph 6.4 mph 91 % 0.0 in
Esan sääasema
Terveisin Weather Underground - 2.75 mb

Alkuperäinen skripti  Jim McMurry - jmcmurry@mwt.net Sovitettu myös templatelle  Wim van der Kuil - Leuven-Template.eu

Laitteet joita käytämme:

Sääasema
Davis VP2

Sääasemaohjelma
Cumulus

Sääaseman tietokone
Asus EeePC

Palveluntarjoaja
Suncomet

Davis VP2

Cumulus

Asus EeePC

Suncomet